Time;durP1;ratioP1;P1;durP2;ratioP2;P2;SDS_P1;SDS_P2;PMS_P1;PMS_P2;Temp;Humidity;BMP_temperature;BMP_pressure;BME280_temperature;BME280_humidity;BME280_pressure;Samples;Min_cycle;Max_cycle;Signal;HPM_P1;HPM_P2
2022/05/18 00:00:48;;;;;;;12.77;6.18;;;;;;;19.26;63.51;101777.50;5056394;28;20032;-63
2022/05/18 00:03:17;;;;;;;14.55;6.20;;;;;;;19.24;63.16;101771.28;5056243;28;20021;-62
2022/05/18 00:05:43;;;;;;;11.05;6.60;;;;;;;19.29;63.64;101770.34;5056380;28;20080;-62
2022/05/18 00:08:09;;;;;;;9.32;6.13;;;;;;;19.26;63.67;101774.81;5056393;28;20104;-62
2022/05/18 00:10:37;;;;;;;11.30;6.03;;;;;;;19.26;63.34;101777.50;5056255;28;20517;-63
2022/05/18 00:13:03;;;;;;;12.32;6.05;;;;;;;19.21;63.29;101776.66;5055942;28;20041;-63
2022/05/18 00:15:29;;;;;;;10.73;6.20;;;;;;;19.18;63.22;101776.69;5056076;28;20029;-62
2022/05/18 00:17:55;;;;;;;9.93;6.20;;;;;;;19.09;63.72;101778.56;5056091;28;20033;-63
2022/05/18 00:20:21;;;;;;;12.75;6.57;;;;;;;19.04;63.68;101769.69;5055996;28;20048;-62
2022/05/18 00:22:55;;;;;;;11.63;6.03;;;;;;;18.97;63.79;101784.91;5056300;28;20025;-62
2022/05/18 00:25:24;;;;;;;12.80;6.32;;;;;;;18.92;63.81;101778.72;5055969;28;20535;-62
2022/05/18 00:27:49;;;;;;;12.15;6.20;;;;;;;18.80;63.83;101786.84;5055751;28;20031;-63
2022/05/18 00:30:17;;;;;;;13.32;6.00;;;;;;;18.65;64.42;101783.38;5055880;28;20453;-62
2022/05/18 00:32:43;;;;;;;9.18;5.82;;;;;;;18.65;64.49;101779.81;5055842;28;20027;-62
2022/05/18 00:35:09;;;;;;;9.35;6.43;;;;;;;18.61;64.47;101786.97;5054716;28;20029;-63
2022/05/18 00:37:35;;;;;;;10.15;6.20;;;;;;;18.44;64.91;101788.88;5055855;28;20071;-62
2022/05/18 00:40:00;;;;;;;10.20;6.05;;;;;;;18.35;65.24;101780.91;5055720;28;20029;-62
2022/05/18 00:42:28;;;;;;;8.98;6.10;;;;;;;18.25;66.00;101785.44;5055530;28;20508;-63
2022/05/18 00:44:54;;;;;;;11.40;6.43;;;;;;;18.10;66.95;101782.84;5055607;28;20389;-63
2022/05/18 00:47:20;;;;;;;9.75;5.97;;;;;;;18.12;66.89;101781.06;5055556;28;20029;-63
2022/05/18 00:49:52;;;;;;;9.27;6.68;;;;;;;18.12;66.69;101781.94;5055427;28;20044;-63
2022/05/18 00:52:24;;;;;;;9.95;6.43;;;;;;;18.00;66.71;101790.91;5055569;28;20025;-63
2022/05/18 00:54:51;;;;;;;10.23;5.80;;;;;;;18.00;66.55;101782.91;5055340;28;20115;-62
2022/05/18 00:57:24;;;;;;;9.68;6.55;;;;;;;17.98;66.16;101784.66;5055215;28;20279;-63
2022/05/18 00:59:55;;;;;;;10.02;6.25;;;;;;;17.89;66.72;101791.84;5055333;28;20032;-63
2022/05/18 01:02:24;;;;;;;8.98;5.93;;;;;;;17.76;67.50;101783.00;5055235;28;20021;-62
2022/05/18 01:04:52;;;;;;;10.48;6.93;;;;;;;17.85;67.02;101785.63;5055260;28;20090;-62
2022/05/18 01:07:23;;;;;;;11.65;7.00;;;;;;;17.94;67.08;101788.28;5055155;28;20021;-63
2022/05/18 01:09:50;;;;;;;7.30;6.03;;;;;;;18.02;65.95;101788.22;5055056;28;20025;-62
2022/05/18 01:12:18;;;;;;;11.88;6.25;;;;;;;17.98;66.45;101789.13;5055119;28;20057;-62
2022/05/18 01:14:51;;;;;;;14.93;6.45;;;;;;;17.97;66.15;101784.69;5055069;28;20367;-62
2022/05/18 01:17:20;;;;;;;12.00;6.70;;;;;;;18.02;66.21;101785.56;5055632;28;20036;-62
2022/05/18 01:19:49;;;;;;;20.30;6.78;;;;;;;17.96;67.17;101789.16;5055268;28;20123;-62
2022/05/18 01:22:35;;;;;;;10.85;6.90;;;;;;;17.94;66.48;101784.69;5055097;28;20021;-62
2022/05/18 01:25:15;;;;;;;11.60;6.88;;;;;;;17.91;66.78;101779.38;5054840;28;20024;-62
2022/05/18 01:27:40;;;;;;;12.40;6.97;;;;;;;17.92;67.46;101783.81;5054804;28;20036;-62
2022/05/18 01:30:07;;;;;;;10.10;6.47;;;;;;;17.94;66.72;101779.34;5054843;28;20025;-62
2022/05/18 01:32:41;;;;;;;15.35;6.88;;;;;;;18.00;66.41;101782.00;5036725;28;20025;-62
2022/05/18 01:35:09;;;;;;;10.40;6.53;;;;;;;17.98;66.70;101773.97;5054579;28;20044;-63
2022/05/18 01:37:34;;;;;;;13.48;6.60;;;;;;;18.03;66.25;101784.69;5054790;28;20083;-62
2022/05/18 01:40:05;;;;;;;11.27;6.15;;;;;;;18.02;66.17;101789.09;5054667;28;20478;-62
2022/05/18 01:42:42;;;;;;;12.32;6.38;;;;;;;18.00;65.94;101793.59;5054464;28;20021;-62
2022/05/18 01:45:07;;;;;;;9.35;6.28;;;;;;;17.99;66.41;101786.47;5054240;28;20420;-62
2022/05/18 01:47:38;;;;;;;10.02;6.18;;;;;;;17.92;66.15;101789.19;5054272;28;20021;-63
2022/05/18 01:50:06;;;;;;;9.00;6.05;;;;;;;17.93;66.12;101789.16;5054202;28;20477;-62
2022/05/18 01:52:32;;;;;;;13.40;6.30;;;;;;;17.92;66.03;101783.81;5054563;28;20101;-62
2022/05/18 01:54:58;;;;;;;10.45;6.38;;;;;;;17.87;66.26;101778.50;5054208;28;20033;-62
2022/05/18 01:57:24;;;;;;;11.63;6.70;;;;;;;17.88;66.65;101772.25;5054302;28;20033;-62
2022/05/18 01:59:49;;;;;;;11.57;6.15;;;;;;;17.85;66.58;101779.41;5054184;28;20021;-62
2022/05/18 02:02:15;;;;;;;13.90;6.32;;;;;;;17.90;67.05;101782.94;5054005;28;20029;-62
2022/05/18 02:04:41;;;;;;;12.65;6.30;;;;;;;17.94;66.44;101784.69;5054310;28;20044;-62
2022/05/18 02:07:08;;;;;;;10.63;6.93;;;;;;;17.89;66.45;101786.50;5054081;28;20104;-62
2022/05/18 02:09:33;;;;;;;12.68;5.97;;;;;;;17.87;66.33;101791.88;5036178;28;20052;-62
2022/05/18 02:11:59;;;;;;;13.98;6.72;;;;;;;17.92;66.92;101783.81;5054014;28;20060;-62
2022/05/18 02:14:26;;;;;;;16.48;6.38;;;;;;;17.92;66.51;101782.03;5053819;28;20105;-62
2022/05/18 02:16:52;;;;;;;11.00;6.03;;;;;;;17.94;66.51;101782.94;5053880;28;20025;-63
2022/05/18 02:19:18;;;;;;;9.63;5.97;;;;;;;17.90;66.53;101783.84;5053986;28;20108;-62
2022/05/18 02:21:43;;;;;;;10.90;5.78;;;;;;;17.88;66.79;101779.38;5053847;28;20048;-62
2022/05/18 02:24:09;;;;;;;13.73;6.28;;;;;;;17.85;66.82;101785.63;5053755;28;20112;-62
2022/05/18 02:26:35;;;;;;;11.75;6.43;;;;;;;17.83;67.00;101783.88;5053758;28;20029;-62
2022/05/18 02:29:01;;;;;;;17.73;6.63;;;;;;;17.83;67.08;101781.19;5053612;28;20036;-62
2022/05/18 02:31:27;;;;;;;11.02;5.63;;;;;;;17.85;66.90;101779.41;5053650;28;20029;-62
2022/05/18 02:33:52;;;;;;;9.27;6.05;;;;;;;17.87;66.79;101777.63;5053320;28;20028;-63
2022/05/18 02:36:19;;;;;;;12.15;6.13;;;;;;;17.83;67.31;101778.53;5053571;28;20538;-62
2022/05/18 02:38:44;;;;;;;10.50;6.35;;;;;;;17.83;67.52;101775.84;5053521;28;20390;-62
2022/05/18 02:41:09;;;;;;;9.02;5.65;;;;;;;17.80;67.28;101776.75;5053430;28;20475;-62
2022/05/18 02:43:38;;;;;;;12.23;6.03;;;;;;;17.89;67.53;101779.38;5053351;28;20064;-62
2022/05/18 02:46:21;;;;;;;9.73;5.90;;;;;;;17.87;66.64;101780.28;5053386;28;20088;-63
2022/05/18 02:48:48;;;;;;;13.52;6.15;;;;;;;17.75;67.12;101783.91;5053264;28;20108;-63
2022/05/18 02:51:15;;;;;;;9.48;6.10;;;;;;;17.68;67.96;101782.09;5053204;28;20053;-63
2022/05/18 02:53:41;;;;;;;11.20;6.40;;;;;;;17.56;68.20;101780.38;5053342;28;20482;-62
2022/05/18 02:56:10;;;;;;;10.48;6.25;;;;;;;17.58;68.28;101775.03;5052934;28;20100;-62
2022/05/18 02:58:38;;;;;;;10.15;6.15;;;;;;;17.50;68.61;101785.72;5053004;28;20071;-63
2022/05/18 03:01:05;;;;;;;10.55;6.10;;;;;;;17.46;69.06;101781.28;5053076;28;20455;-63
2022/05/18 03:03:31;;;;;;;12.73;6.10;;;;;;;17.42;69.31;101779.50;5053068;28;20040;-62
2022/05/18 03:05:56;;;;;;;13.48;6.22;;;;;;;17.48;68.54;101780.41;5053351;28;20041;-62
2022/05/18 03:08:21;;;;;;;11.70;6.35;;;;;;;17.45;69.27;101783.06;5053116;28;20025;-62
2022/05/18 03:10:47;;;;;;;13.18;6.07;;;;;;;17.42;68.89;101783.06;5053065;28;20032;-63
2022/05/18 03:13:12;;;;;;;12.32;6.50;;;;;;;17.49;69.47;101789.31;5053035;28;20099;-62
2022/05/18 03:15:37;;;;;;;14.20;6.70;;;;;;;17.63;69.37;101791.91;5052831;28;20186;-63
2022/05/18 03:18:03;;;;;;;10.57;6.47;;;;;;;17.64;68.79;101793.69;5052855;28;20539;-62
2022/05/18 03:25:55;;;;;;;15.30;6.43;;;;;;;17.51;69.11;101806.19;5053010;28;20504;-62
2022/05/18 03:28:21;;;;;;;10.15;6.35;;;;;;;17.46;68.80;101798.19;5052704;28;20021;-63
2022/05/18 03:30:46;;;;;;;12.75;6.53;;;;;;;17.44;69.28;101800.00;5052906;28;20124;-63
2022/05/18 03:33:11;;;;;;;12.98;6.40;;;;;;;17.35;69.35;101808.03;5052864;28;20462;-63
2022/05/18 03:35:37;;;;;;;10.40;6.50;;;;;;;17.34;69.58;101816.91;5052832;28;20083;-63
2022/05/18 03:38:05;;;;;;;10.45;6.78;;;;;;;17.36;70.56;101822.28;5052454;28;20363;-62
2022/05/18 03:40:37;;;;;;;12.15;6.70;;;;;;;17.38;70.35;101813.34;5052261;28;20484;-62
2022/05/18 03:43:04;;;;;;;10.27;6.70;;;;;;;17.50;70.00;101815.13;5052169;28;20025;-63
2022/05/18 03:45:30;;;;;;;11.98;6.95;;;;;;;17.53;69.82;101821.34;5052154;28;20025;-62
2022/05/18 03:47:55;;;;;;;11.75;6.63;;;;;;;17.55;69.58;101812.44;5052227;28;20028;-62
2022/05/18 03:50:21;;;;;;;11.27;6.50;;;;;;;17.68;68.42;101811.50;5052046;28;20106;-62
2022/05/18 03:52:46;;;;;;;13.75;6.47;;;;;;;17.71;69.62;101823.06;5052334;28;20029;-62
2022/05/18 03:55:12;;;;;;;9.57;6.82;;;;;;;17.66;69.61;101827.56;5052174;28;20114;-62
2022/05/18 03:57:37;;;;;;;12.13;7.30;;;;;;;17.61;69.69;101826.69;5052095;28;20048;-63
2022/05/18 04:00:04;;;;;;;11.40;7.10;;;;;;;17.68;68.93;101822.19;5052091;28;20462;-62
2022/05/18 04:02:30;;;;;;;9.73;6.82;;;;;;;17.79;68.24;101828.44;5051984;28;20025;-62
2022/05/18 04:04:55;;;;;;;12.18;7.45;;;;;;;17.62;69.93;101836.47;5052065;28;20040;-62
2022/05/18 04:07:20;;;;;;;8.70;7.10;;;;;;;17.61;69.67;101836.50;5052201;28;20032;-63
2022/05/18 04:09:47;;;;;;;13.07;7.80;;;;;;;17.49;70.53;101832.94;5056045;28;20056;-62
2022/05/18 04:12:13;;;;;;;13.13;7.25;;;;;;;17.55;69.92;101826.69;5055778;28;20036;-62
2022/05/18 04:14:39;;;;;;;11.88;7.70;;;;;;;17.42;71.14;101827.59;5055543;28;20025;-63
2022/05/18 04:17:04;;;;;;;11.85;7.80;;;;;;;17.43;71.03;101821.34;5055473;28;20389;-62
2022/05/18 04:19:29;;;;;;;13.40;7.32;;;;;;;17.47;70.99;101823.13;5055644;28;20025;-62
2022/05/18 04:21:55;;;;;;;10.55;7.50;;;;;;;17.46;70.93;101818.69;5055449;28;20029;-62
2022/05/18 04:24:20;;;;;;;15.43;7.75;;;;;;;17.56;70.57;101824.91;5055488;28;20041;-62
2022/05/18 04:26:46;;;;;;;11.52;7.63;;;;;;;17.58;70.61;101829.34;5055645;28;20481;-63
2022/05/18 04:29:11;;;;;;;11.25;7.53;;;;;;;17.61;70.66;101831.16;5037236;28;20021;-63
2022/05/18 04:31:36;;;;;;;14.95;7.53;;;;;;;17.69;70.44;101826.66;5055372;28;20131;-63
2022/05/18 04:34:02;;;;;;;12.95;7.55;;;;;;;17.64;70.93;101834.66;5055062;28;20120;-63
2022/05/18 04:36:27;;;;;;;13.50;8.15;;;;;;;17.62;71.35;101833.81;5055410;28;20029;-62
2022/05/18 04:38:53;;;;;;;10.88;7.80;;;;;;;17.69;70.87;101842.72;5055074;28;20021;-63
2022/05/18 04:41:18;;;;;;;12.68;7.68;;;;;;;17.70;71.30;101839.13;5055304;28;20029;-63
2022/05/18 04:43:43;;;;;;;12.55;7.88;;;;;;;17.70;71.38;101839.13;5055131;28;20014;-63
2022/05/18 04:46:09;;;;;;;10.32;7.10;;;;;;;17.75;70.63;101840.94;5055225;28;20068;-63
2022/05/18 04:48:34;;;;;;;15.13;7.70;;;;;;;17.81;70.43;101841.78;5055188;28;20021;-62
2022/05/18 04:51:04;;;;;;;12.88;7.80;;;;;;;17.82;70.89;101838.25;5054742;28;20044;-63
2022/05/18 04:53:29;;;;;;;14.73;7.50;;;;;;;17.87;71.03;101845.34;5055088;28;20024;-63
2022/05/18 04:55:55;;;;;;;14.07;7.60;;;;;;;17.94;70.00;101855.16;5054791;28;20362;-62
2022/05/18 04:58:20;;;;;;;10.88;7.45;;;;;;;18.04;70.30;101865.81;5054884;28;20527;-63
2022/05/18 05:00:58;;;;;;;11.23;7.30;;;;;;;18.14;70.01;101868.41;5054637;28;20619;-63
2022/05/18 05:03:23;;;;;;;9.90;6.97;;;;;;;18.31;68.83;101868.34;5055040;28;20029;-62
2022/05/18 05:05:49;;;;;;;13.05;7.30;;;;;;;18.41;68.37;101877.22;5054639;28;20036;-63
2022/05/18 05:08:14;;;;;;;12.18;7.00;;;;;;;18.43;68.60;101880.78;5054933;28;20028;-62
2022/05/18 05:10:40;;;;;;;10.88;6.55;;;;;;;18.50;67.62;101883.44;5054653;28;20021;-62
2022/05/18 05:13:05;;;;;;;9.48;6.78;;;;;;;18.53;67.93;101878.03;5054730;28;20382;-62
2022/05/18 05:15:31;;;;;;;9.13;6.40;;;;;;;18.61;67.52;101871.75;5054392;28;20117;-63
2022/05/18 05:17:56;;;;;;;9.30;6.40;;;;;;;18.80;67.15;101878.81;5054216;28;20033;-62
2022/05/18 05:20:21;;;;;;;14.27;6.57;;;;;;;19.00;67.10;101871.50;5054426;28;20112;-62
2022/05/18 05:22:47;;;;;;;9.63;6.53;;;;;;;19.26;66.25;101881.13;5055068;28;20091;-62
2022/05/18 05:25:14;;;;;;;10.30;6.70;;;;;;;19.42;65.73;101879.22;5054358;28;20108;-62
2022/05/18 05:27:39;;;;;;;7.45;6.00;;;;;;;19.57;64.73;101880.84;5054074;28;20029;-62
2022/05/18 05:30:06;;;;;;;10.23;5.65;;;;;;;19.72;63.85;101884.28;5054062;28;20444;-62
2022/05/18 05:32:32;;;;;;;9.80;5.70;;;;;;;19.84;63.34;101882.41;5054283;28;20098;-62
2022/05/18 05:34:58;;;;;;;11.02;6.13;;;;;;;19.89;63.75;101892.16;5054151;28;20106;-62
2022/05/18 05:37:24;;;;;;;10.15;5.68;;;;;;;19.99;63.34;101883.09;5053955;28;20033;-62
2022/05/18 05:39:49;;;;;;;9.52;5.25;;;;;;;20.08;62.83;101879.41;5054221;28;20032;-62
2022/05/18 05:42:14;;;;;;;10.18;4.93;;;;;;;20.13;62.29;101882.06;5053954;28;20031;-62
2022/05/18 05:44:40;;;;;;;11.68;5.40;;;;;;;20.12;62.50;101882.94;5054222;28;20030;-65
2022/05/18 05:47:05;;;;;;;11.18;5.10;;;;;;;20.11;61.32;101884.75;5053813;28;20033;-62
2022/05/18 05:49:31;;;;;;;9.02;4.90;;;;;;;20.11;61.98;101889.22;5053578;28;20043;-62
2022/05/18 05:51:56;;;;;;;7.68;4.70;;;;;;;20.16;61.14;101895.41;5054052;28;20033;-63
2022/05/18 05:54:22;;;;;;;6.63;4.50;;;;;;;20.21;60.92;101898.94;5053688;28;20451;-63
2022/05/18 05:56:47;;;;;;;7.13;4.63;;;;;;;20.29;61.28;101902.41;5054155;28;20025;-63
2022/05/18 05:59:13;;;;;;;9.63;4.50;;;;;;;20.37;60.15;101907.69;5053633;28;20028;-63
2022/05/18 06:01:39;;;;;;;8.15;4.70;;;;;;;20.56;60.26;101911.06;5053466;28;20473;-63
2022/05/18 06:04:07;;;;;;;27.95;5.78;;;;;;;20.73;59.47;101912.59;5053463;28;20025;-63
2022/05/18 06:06:35;;;;;;;21.75;5.85;;;;;;;20.85;59.10;101908.81;5053351;28;20455;-63
2022/05/18 06:09:01;;;;;;;11.10;5.50;;;;;;;21.04;58.68;101920.22;5053499;28;20039;-63
2022/05/18 06:11:27;;;;;;;21.60;5.03;;;;;;;21.14;58.38;101926.31;5053314;28;20025;-62
2022/05/18 06:13:53;;;;;;;12.80;5.22;;;;;;;21.25;58.76;101917.19;5053344;28;20024;-62
2022/05/18 06:16:18;;;;;;;23.67;5.22;;;;;;;21.32;57.30;101917.09;5053084;28;20021;-63
2022/05/18 06:18:43;;;;;;;21.25;5.63;;;;;;;21.37;57.56;101913.44;5053123;28;20484;-62
2022/05/18 06:21:09;;;;;;;14.20;5.03;;;;;;;21.45;56.88;101924.03;5053334;28;20027;-62
2022/05/18 06:23:34;;;;;;;13.15;5.10;;;;;;;21.40;56.97;101921.44;5053486;28;20092;-62
2022/05/18 06:26:01;;;;;;;12.30;5.15;;;;;;;21.40;57.16;101932.19;5053256;28;20028;-61
2022/05/18 06:28:27;;;;;;;21.38;5.38;;;;;;;21.37;57.38;101924.19;5053511;28;20037;-61
2022/05/18 06:30:53;;;;;;;17.83;4.60;;;;;;;21.39;57.05;101932.22;5052808;28;20564;-62
2022/05/18 06:33:18;;;;;;;22.23;5.10;;;;;;;21.38;57.03;101941.22;5052542;28;20103;-63
2022/05/18 06:35:44;;;;;;;16.67;4.93;;;;;;;21.41;57.52;101933.06;5053082;28;20035;-62
2022/05/18 06:38:18;;;;;;;25.70;5.40;;;;;;;21.46;57.55;101939.28;5052969;28;20029;-62
2022/05/18 06:43:27;;;;;;;19.83;4.93;;;;;;;21.58;57.46;101947.13;5053317;28;20106;-62
2022/05/18 06:45:53;;;;;;;9.07;4.65;;;;;;;21.61;56.28;101943.50;5053101;28;20024;-63
2022/05/18 06:48:18;;;;;;;10.88;4.75;;;;;;;21.68;56.32;101950.56;5052773;28;20137;-63
2022/05/18 06:50:44;;;;;;;11.70;4.85;;;;;;;21.70;56.79;101949.59;5043221;28;20041;-63
2022/05/18 06:53:09;;;;;;;11.10;4.55;;;;;;;21.77;55.29;101949.50;5052882;28;20040;-63
2022/05/18 06:55:35;;;;;;;12.23;4.57;;;;;;;21.86;54.81;101947.53;5052806;28;20032;-63
2022/05/18 06:58:00;;;;;;;13.05;4.50;;;;;;;21.91;53.61;101952.81;5052669;28;20419;-64
2022/05/18 07:00:25;;;;;;;8.95;4.28;;;;;;;21.94;53.84;101950.06;5052687;28;20025;-64
2022/05/18 07:02:51;;;;;;;8.32;4.57;;;;;;;22.04;53.08;101951.66;5052875;28;20025;-64
2022/05/18 07:05:17;;;;;;;15.10;4.72;;;;;;;22.10;52.73;101953.34;5052586;28;20052;-63
2022/05/18 07:07:43;;;;;;;14.15;4.90;;;;;;;22.16;52.67;101955.97;5052764;28;20090;-63
2022/05/18 07:10:08;;;;;;;13.75;5.35;;;;;;;22.19;52.02;101961.28;5052587;28;20029;-63
2022/05/18 07:12:37;;;;;;;16.83;5.20;;;;;;;22.17;53.00;101968.50;5052696;28;20025;-63
2022/05/18 07:15:04;;;;;;;12.52;5.78;;;;;;;22.12;52.15;101965.91;5052458;28;20036;-63
2022/05/18 07:17:30;;;;;;;14.02;5.78;;;;;;;22.17;52.72;101972.06;5052992;28;20110;-63
2022/05/18 07:19:55;;;;;;;14.25;5.80;;;;;;;22.48;52.89;101976.84;5052543;28;20359;-63
2022/05/18 07:22:20;;;;;;;16.02;6.30;;;;;;;22.86;52.16;101972.44;5052672;28;20100;-63
2022/05/18 07:24:46;;;;;;;18.25;6.20;;;;;;;23.35;50.76;101972.22;5052658;28;20035;-63
2022/05/18 07:27:11;;;;;;;10.15;6.85;;;;;;;23.61;50.46;101978.78;5052521;28;20060;-64
2022/05/18 07:29:36;;;;;;;15.43;8.30;;;;;;;23.67;50.29;101978.66;5052638;28;20032;-62
2022/05/18 07:32:08;;;;;;;17.05;7.53;;;;;;;23.69;50.49;101985.78;5052280;28;20420;-63
2022/05/18 07:34:34;;;;;;;19.08;8.90;;;;;;;23.73;51.19;101979.38;5052573;28;20033;-63
2022/05/18 07:37:00;;;;;;;14.25;7.80;;;;;;;23.91;50.65;101979.84;5052376;28;20104;-63
2022/05/18 07:39:28;;;;;;;14.73;7.70;;;;;;;24.03;50.93;101993.00;5052608;28;20116;-63
2022/05/18 07:41:55;;;;;;;14.60;7.53;;;;;;;24.01;51.71;101984.03;5052372;28;20462;-62
2022/05/18 07:44:21;;;;;;;11.95;6.70;;;;;;;23.91;51.43;101971.72;5055893;28;20108;-62
2022/05/18 07:46:46;;;;;;;11.60;6.88;;;;;;;23.91;51.47;101983.41;5056448;28;20040;-62
2022/05/18 07:49:12;;;;;;;13.57;6.70;;;;;;;23.87;52.24;101981.72;5056291;28;20017;-62
2022/05/18 07:51:37;;;;;;;14.95;6.93;;;;;;;23.92;52.28;101985.19;5056196;28;20045;-62
2022/05/18 07:54:03;;;;;;;13.85;7.13;;;;;;;23.99;52.30;101985.91;5056175;28;20362;-62
2022/05/18 07:56:28;;;;;;;13.43;6.60;;;;;;;24.00;52.04;101987.69;5056282;28;20075;-62
2022/05/18 07:58:54;;;;;;;13.15;6.82;;;;;;;23.97;51.79;101998.56;5056371;28;20024;-62
2022/05/18 08:01:20;;;;;;;13.77;6.80;;;;;;;24.21;51.63;102000.59;5056309;28;20112;-62
2022/05/18 08:03:45;;;;;;;13.68;6.68;;;;;;;24.55;50.93;102004.19;5056014;28;20040;-62
2022/05/18 08:06:11;;;;;;;13.75;6.82;;;;;;;25.03;49.96;102000.94;5055942;28;20033;-62
2022/05/18 08:08:36;;;;;;;11.30;6.70;;;;;;;25.21;48.89;102000.38;5055846;28;20075;-62
2022/05/18 08:16:31;;;;;;;13.05;6.80;;;;;;;25.18;49.21;102005.88;5055850;28;20169;-62
2022/05/18 08:18:57;;;;;;;11.63;7.38;;;;;;;25.15;49.07;102014.13;5055887;28;20033;-62
2022/05/18 08:21:24;;;;;;;16.70;7.60;;;;;;;25.34;49.22;102004.47;5055919;28;20083;-62
2022/05/18 08:23:50;;;;;;;12.80;7.40;;;;;;;25.57;48.51;102009.16;5055713;28;20025;-62
2022/05/18 08:26:16;;;;;;;12.88;6.72;;;;;;;25.97;48.20;101999.69;5055680;28;20037;-62
2022/05/18 08:28:41;;;;;;;14.95;6.90;;;;;;;26.29;46.34;102001.22;5055589;28;20561;-62
2022/05/18 08:31:06;;;;;;;11.05;6.85;;;;;;;26.70;45.87;101998.84;5055680;28;20422;-62
2022/05/18 08:33:33;;;;;;;14.45;6.85;;;;;;;27.03;44.75;102003.91;5055541;28;20053;-63
2022/05/18 08:36:07;;;;;;;14.07;6.97;;;;;;;27.31;44.85;102003.69;5055503;28;20024;-62
2022/05/18 08:38:34;;;;;;;12.25;6.78;;;;;;;27.57;44.98;102008.03;5055506;28;20116;-62
2022/05/18 08:41:23;;;;;;;15.05;8.23;;;;;;;27.71;43.55;102011.06;5055325;28;20025;-62
2022/05/18 08:43:52;;;;;;;15.35;7.38;;;;;;;27.64;43.83;102006.84;5055344;28;20481;-62
2022/05/18 08:46:29;;;;;;;14.32;6.90;;;;;;;27.66;43.38;102013.97;5055235;28;20032;-62
2022/05/18 08:49:13;;;;;;;15.93;7.72;;;;;;;27.77;43.43;102009.97;5055899;28;20087;-62
2022/05/18 08:52:03;;;;;;;16.40;7.57;;;;;;;27.98;44.18;102003.59;5055532;28;20041;-62
2022/05/18 08:54:47;;;;;;;14.20;8.30;;;;;;;28.10;43.68;102011.22;5054836;28;20028;-62
2022/05/18 08:57:28;;;;;;;12.60;7.00;;;;;;;28.25;43.27;102017.78;5055220;28;20021;-62
2022/05/18 09:00:07;;;;;;;13.35;7.60;;;;;;;28.30;42.66;102004.00;5054977;28;20099;-62
2022/05/18 09:02:34;;;;;;;10.43;6.90;;;;;;;28.53;41.42;102005.72;5054696;28;20036;-62
2022/05/18 09:05:12;;;;;;;12.35;6.90;;;;;;;28.65;41.99;102005.13;5054983;28;20032;-62
2022/05/18 09:07:45;;;;;;;11.32;6.72;;;;;;;28.83;41.29;102003.41;5054930;28;20071;-62
2022/05/18 09:10:25;;;;;;;14.38;6.82;;;;;;;28.79;42.02;102009.94;5054780;28;20025;-62
2022/05/18 09:12:51;;;;;;;12.75;7.05;;;;;;;29.10;40.95;102009.38;5036750;28;20432;-62
2022/05/18 09:15:28;;;;;;;12.15;4.97;;;;;;;29.33;39.76;102011.84;5054701;28;20033;-62
2022/05/18 09:17:55;;;;;;;8.80;4.30;;;;;;;29.47;39.26;102013.91;5054744;28;20048;-62
2022/05/18 09:20:33;;;;;;;7.35;4.10;;;;;;;29.59;38.63;102009.69;5054670;28;20025;-62
2022/05/18 09:23:07;;;;;;;12.27;4.60;;;;;;;30.04;38.70;102017.34;5054834;28;20394;-63
2022/05/18 09:26:03;;;;;;;8.20;4.40;;;;;;;30.24;38.11;102012.72;5054526;28;20036;-62
2022/05/18 09:28:49;;;;;;;8.50;4.88;;;;;;;30.22;36.90;102001.00;5054876;28;20029;-62
2022/05/18 09:31:33;;;;;;;11.30;5.63;;;;;;;30.42;38.42;102007.16;5054219;28;20370;-62
2022/05/18 09:34:36;;;;;;;6.80;4.20;;;;;;;30.24;38.59;102004.56;5054655;28;20033;-62
2022/05/18 09:37:01;;;;;;;7.57;3.80;;;;;;;30.13;37.02;102010.53;5054338;28;20082;-60
2022/05/18 09:39:31;;;;;;;9.10;5.10;;;;;;;30.05;38.06;102002.75;5054432;28;20479;-60
2022/05/18 09:42:02;;;;;;;9.57;5.47;;;;;;;30.00;38.10;102006.69;5054144;28;20413;-60
2022/05/18 09:44:40;;;;;;;9.00;5.32;;;;;;;29.84;38.98;102002.03;5054184;28;20025;-60
2022/05/18 09:47:07;;;;;;;9.35;4.85;;;;;;;30.01;38.81;102009.31;5053874;28;20473;-60
2022/05/18 09:49:42;;;;;;;10.65;5.38;;;;;;;30.14;38.18;102002.28;5054060;28;20048;-60
2022/05/18 09:52:08;;;;;;;10.15;4.95;;;;;;;30.20;38.00;102011.13;5053938;28;20093;-60
2022/05/18 09:54:35;;;;;;;7.38;4.25;;;;;;;30.22;37.73;102007.34;5054091;28;20040;-60
2022/05/18 09:57:28;;;;;;;10.73;4.65;;;;;;;30.21;37.40;102004.72;5053780;28;20037;-60
2022/05/18 09:59:57;;;;;;;7.82;4.00;;;;;;;30.23;37.79;102003.63;5053829;28;20036;-60
2022/05/18 10:07:57;;;;;;;6.25;3.60;;;;;;;30.62;36.18;102011.53;5053897;28;20056;-60
2022/05/18 10:10:29;;;;;;;8.98;3.90;;;;;;;30.88;35.48;102011.97;5053797;28;20408;-60
2022/05/18 10:12:54;;;;;;;;;;;;;;;31.33;35.26;102015.78;5053812;28;20474;-60
2022/05/18 10:15:22;;;;;;;6.33;3.50;;;;;;;31.39;34.88;102012.69;5053347;28;19913;-60
2022/05/18 10:17:55;;;;;;;5.53;3.40;;;;;;;31.44;34.71;102013.31;5053121;28;20048;-60
2022/05/18 10:20:30;;;;;;;6.03;3.25;;;;;;;31.79;34.88;102004.88;5053335;28;20466;-60
2022/05/18 10:22:57;;;;;;;7.78;3.33;;;;;;;31.84;33.13;102003.66;5053236;28;20028;-60
2022/05/18 10:25:42;;;;;;;8.57;3.33;;;;;;;32.09;34.05;102002.16;5053234;28;20105;-60
2022/05/18 10:28:23;;;;;;;6.18;3.35;;;;;;;32.16;33.17;101996.22;5053175;28;20124;-60
2022/05/18 10:31:06;;;;;;;8.03;3.57;;;;;;;32.52;33.45;102004.97;5053105;28;20031;-60
2022/05/18 10:33:36;;;;;;;8.73;3.47;;;;;;;32.08;33.65;101993.09;5053111;28;20028;-60
2022/05/18 10:36:23;;;;;;;7.90;3.20;;;;;;;32.54;33.21;102005.75;5053048;28;20534;-60
2022/05/18 10:38:57;;;;;;;8.13;3.63;;;;;;;32.64;32.04;101999.59;5053023;28;20454;-60
2022/05/18 10:41:28;;;;;;;6.60;3.10;;;;;;;32.41;31.78;101994.69;5053026;28;20103;-60
2022/05/18 10:44:12;;;;;;;6.77;3.40;;;;;;;32.71;32.96;101989.13;5035275;28;20036;-60
2022/05/18 10:46:47;;;;;;;7.72;3.53;;;;;;;32.80;31.24;101987.66;5053119;28;20025;-60
2022/05/18 10:49:33;;;;;;;9.15;3.03;;;;;;;32.89;32.02;101982.47;5034913;28;20478;-60
2022/05/18 10:52:34;;;;;;;7.57;3.25;;;;;;;33.17;31.52;101988.88;5032897;28;20482;-60
2022/05/18 10:55:14;;;;;;;7.93;3.05;;;;;;;33.39;30.69;101982.84;5033099;28;20079;-60
2022/05/18 10:57:41;;;;;;;5.32;2.90;;;;;;;33.36;30.82;101977.56;5032876;28;20022;-61
2022/05/18 11:00:10;;;;;;;6.85;3.03;;;;;;;33.46;30.03;101978.75;5032982;28;20577;-60
2022/05/18 11:02:51;;;;;;;11.13;3.30;;;;;;;33.40;30.47;101980.03;5032773;28;20018;-60
2022/05/18 11:05:24;;;;;;;7.88;3.28;;;;;;;32.46;31.44;101986.19;5032977;28;20036;-63
2022/05/18 11:07:50;;;;;;;7.22;2.85;;;;;;;32.60;31.05;101978.00;5033130;28;20432;-63
2022/05/18 11:10:15;;;;;;;6.45;3.00;;;;;;;32.84;31.47;101979.13;5032854;28;20022;-63
2022/05/18 11:12:59;;;;;;;5.97;3.00;;;;;;;33.17;30.73;101982.53;5015041;28;20028;-63
2022/05/18 11:15:53;;;;;;;5.00;2.40;;;;;;;33.64;28.83;101980.22;5032728;28;20069;-63
2022/05/18 11:18:37;;;;;;;5.82;3.00;;;;;;;33.78;29.41;101973.78;4952173;28;20043;-63
2022/05/18 11:21:05;;;;;;;7.45;3.40;;;;;;;33.72;29.04;101976.09;4953031;29;20381;-63
2022/05/18 11:23:48;;;;;;;4.45;3.00;;;;;;;33.67;29.55;101978.28;4952689;29;20106;-63
2022/05/18 11:27:07;;;;;;;8.27;3.90;;;;;;;33.54;30.19;101970.88;4952711;29;20032;-63
2022/05/18 11:30:00;;;;;;;8.75;3.00;;;;;;;33.65;29.88;101970.13;4895648;29;20123;-63
2022/05/18 11:32:51;;;;;;;8.52;2.97;;;;;;;33.94;30.25;101965.38;4895667;29;20116;-63
2022/05/18 11:35:25;;;;;;;5.15;2.92;;;;;;;34.09;29.61;101968.91;4895506;29;20551;-63
2022/05/18 11:38:09;;;;;;;8.82;3.30;;;;;;;34.22;29.46;101958.84;4895660;29;20040;-63
2022/05/18 11:41:00;;;;;;;7.45;3.20;;;;;;;34.22;29.37;101956.09;4895430;29;20044;-60
2022/05/18 11:43:53;;;;;;;6.43;3.28;;;;;;;34.41;29.29;101957.53;4895299;29;20032;-61
2022/05/18 11:46:31;;;;;;;8.77;3.20;;;;;;;34.36;29.22;101953.25;4895362;29;20028;-61
2022/05/18 11:49:07;;;;;;;9.52;3.60;;;;;;;34.51;27.92;101958.63;4895188;29;20041;-61